sensor_id;sensor_type;location;lat;lon;timestamp;temperature;humidity
15386;DHT22;7791;47.246;9.648;2023-08-01T00:01:01;19.40;99.90
15386;DHT22;7791;47.246;9.648;2023-08-01T00:03:40;19.40;99.90
15386;DHT22;7791;47.246;9.648;2023-08-01T00:06:19;19.30;99.90
15386;DHT22;7791;47.246;9.648;2023-08-01T00:09:01;19.40;99.90
15386;DHT22;7791;47.246;9.648;2023-08-01T00:11:53;19.40;99.90
15386;DHT22;7791;47.246;9.648;2023-08-01T00:14:35;19.40;99.90
15386;DHT22;7791;47.246;9.648;2023-08-01T00:17:23;19.40;99.90
15386;DHT22;7791;47.246;9.648;2023-08-01T00:19:59;19.40;99.90
15386;DHT22;7791;47.246;9.648;2023-08-01T00:22:35;19.50;99.90
15386;DHT22;7791;47.246;9.648;2023-08-01T00:25:10;19.40;99.90
15386;DHT22;7791;47.246;9.648;2023-08-01T00:28:08;19.40;99.90
15386;DHT22;7791;47.246;9.648;2023-08-01T00:30:48;19.40;99.90
15386;DHT22;7791;47.246;9.648;2023-08-01T00:33:37;19.50;99.90
15386;DHT22;7791;47.246;9.648;2023-08-01T00:36:29;19.50;99.90
15386;DHT22;7791;47.246;9.648;2023-08-01T00:39:05;19.50;99.90
15386;DHT22;7791;47.246;9.648;2023-08-01T00:41:49;19.50;99.90
15386;DHT22;7791;47.246;9.648;2023-08-01T00:44:32;19.40;99.90
15386;DHT22;7791;47.246;9.648;2023-08-01T00:47:19;19.50;99.90
15386;DHT22;7791;47.246;9.648;2023-08-01T00:50:00;19.50;99.90
15386;DHT22;7791;47.246;9.648;2023-08-01T00:52:48;19.60;99.90
15386;DHT22;7791;47.246;9.648;2023-08-01T00:55:22;19.70;99.90
15386;DHT22;7791;47.246;9.648;2023-08-01T00:57:49;19.60;99.90
15386;DHT22;7791;47.246;9.648;2023-08-01T01:00:48;19.60;99.90
15386;DHT22;7791;47.246;9.648;2023-08-01T01:09:16;19.50;99.90
15386;DHT22;7791;47.246;9.648;2023-08-01T01:11:54;19.50;99.90
15386;DHT22;7791;47.246;9.648;2023-08-01T01:17:18;19.40;99.90
15386;DHT22;7791;47.246;9.648;2023-08-01T01:20:11;19.50;99.90
15386;DHT22;7791;47.246;9.648;2023-08-01T01:22:46;19.50;99.90
15386;DHT22;7791;47.246;9.648;2023-08-01T01:25:25;19.50;99.90
15386;DHT22;7791;47.246;9.648;2023-08-01T01:28:05;19.50;99.90
15386;DHT22;7791;47.246;9.648;2023-08-01T01:30:46;19.50;99.90
15386;DHT22;7791;47.246;9.648;2023-08-01T01:33:38;19.50;99.90
15386;DHT22;7791;47.246;9.648;2023-08-01T01:36:16;19.50;99.90
15386;DHT22;7791;47.246;9.648;2023-08-01T01:38:53;19.50;99.90
15386;DHT22;7791;47.246;9.648;2023-08-01T01:41:44;19.40;99.90
15386;DHT22;7791;47.246;9.648;2023-08-01T01:44:38;19.40;99.90
15386;DHT22;7791;47.246;9.648;2023-08-01T01:47:17;19.50;99.90
15386;DHT22;7791;47.246;9.648;2023-08-01T01:49:58;19.50;99.90
15386;DHT22;7791;47.246;9.648;2023-08-01T01:52:37;19.50;99.90
15386;DHT22;7791;47.246;9.648;2023-08-01T01:55:05;19.50;99.90
15386;DHT22;7791;47.246;9.648;2023-08-01T01:57:44;19.50;99.90
15386;DHT22;7791;47.246;9.648;2023-08-01T02:00:18;19.50;99.90
15386;DHT22;7791;47.246;9.648;2023-08-01T02:03:05;19.40;99.90
15386;DHT22;7791;47.246;9.648;2023-08-01T02:06:02;19.50;99.90
15386;DHT22;7791;47.246;9.648;2023-08-01T02:08:44;19.40;99.90
15386;DHT22;7791;47.246;9.648;2023-08-01T02:11:31;19.40;99.90
15386;DHT22;7791;47.246;9.648;2023-08-01T02:14:07;19.40;99.90
15386;DHT22;7791;47.246;9.648;2023-08-01T02:16:42;19.50;99.90
15386;DHT22;7791;47.246;9.648;2023-08-01T02:19:15;19.50;99.90
15386;DHT22;7791;47.246;9.648;2023-08-01T02:21:51;19.60;99.90
15386;DHT22;7791;47.246;9.648;2023-08-01T02:24:18;19.50;99.90
15386;DHT22;7791;47.246;9.648;2023-08-01T02:26:54;19.50;99.90
15386;DHT22;7791;47.246;9.648;2023-08-01T02:29:27;19.40;99.90
15386;DHT22;7791;47.246;9.648;2023-08-01T02:32:12;19.30;99.90
15386;DHT22;7791;47.246;9.648;2023-08-01T02:34:57;19.20;99.90
15386;DHT22;7791;47.246;9.648;2023-08-01T02:37:38;19.10;99.90
15386;DHT22;7791;47.246;9.648;2023-08-01T02:40:27;19.00;99.90
15386;DHT22;7791;47.246;9.648;2023-08-01T02:43:13;18.90;99.90
15386;DHT22;7791;47.246;9.648;2023-08-01T02:45:56;18.90;99.90
15386;DHT22;7791;47.246;9.648;2023-08-01T02:48:31;18.80;99.90
15386;DHT22;7791;47.246;9.648;2023-08-01T02:51:11;18.80;99.90
15386;DHT22;7791;47.246;9.648;2023-08-01T02:54:23;18.70;99.90
15386;DHT22;7791;47.246;9.648;2023-08-01T02:57:09;18.30;99.90
15386;DHT22;7791;47.246;9.648;2023-08-01T02:59:54;18.30;99.90
15386;DHT22;7791;47.246;9.648;2023-08-01T03:02:42;18.40;99.90
15386;DHT22;7791;47.246;9.648;2023-08-01T03:08:16;18.50;99.90
15386;DHT22;7791;47.246;9.648;2023-08-01T03:10:53;18.50;99.90
15386;DHT22;7791;47.246;9.648;2023-08-01T03:13:35;18.50;99.90
15386;DHT22;7791;47.246;9.648;2023-08-01T03:16:19;18.30;99.90
15386;DHT22;7791;47.246;9.648;2023-08-01T03:18:54;18.10;99.90
15386;DHT22;7791;47.246;9.648;2023-08-01T03:21:38;18.10;99.90
15386;DHT22;7791;47.246;9.648;2023-08-01T03:24:30;18.10;99.90
15386;DHT22;7791;47.246;9.648;2023-08-01T03:27:12;18.20;99.90
15386;DHT22;7791;47.246;9.648;2023-08-01T03:29:48;18.20;99.90
15386;DHT22;7791;47.246;9.648;2023-08-01T03:32:26;18.30;99.90
15386;DHT22;7791;47.246;9.648;2023-08-01T03:35:02;18.30;99.90
15386;DHT22;7791;47.246;9.648;2023-08-01T03:38:03;18.40;99.90
15386;DHT22;7791;47.246;9.648;2023-08-01T03:40:26;18.30;99.90
15386;DHT22;7791;47.246;9.648;2023-08-01T03:43:01;18.10;99.90
15386;DHT22;7791;47.246;9.648;2023-08-01T03:45:36;18.10;99.90
15386;DHT22;7791;47.246;9.648;2023-08-01T03:51:24;18.20;99.90
15386;DHT22;7791;47.246;9.648;2023-08-01T03:54:02;18.30;99.90
15386;DHT22;7791;47.246;9.648;2023-08-01T03:56:35;18.30;99.90
15386;DHT22;7791;47.246;9.648;2023-08-01T03:59:10;18.30;99.90
15386;DHT22;7791;47.246;9.648;2023-08-01T04:01:43;18.30;99.90
15386;DHT22;7791;47.246;9.648;2023-08-01T04:04:35;18.30;99.90
15386;DHT22;7791;47.246;9.648;2023-08-01T04:07:22;18.20;99.90
15386;DHT22;7791;47.246;9.648;2023-08-01T04:10:15;17.90;99.90
15386;DHT22;7791;47.246;9.648;2023-08-01T04:12:58;17.90;99.90
15386;DHT22;7791;47.246;9.648;2023-08-01T04:15:36;18.00;99.90
15386;DHT22;7791;47.246;9.648;2023-08-01T04:20:58;18.20;99.90
15386;DHT22;7791;47.246;9.648;2023-08-01T04:23:37;18.10;99.90
15386;DHT22;7791;47.246;9.648;2023-08-01T04:29:17;18.10;99.90
15386;DHT22;7791;47.246;9.648;2023-08-01T04:31:52;18.20;99.90
15386;DHT22;7791;47.246;9.648;2023-08-01T04:34:34;18.00;99.90
15386;DHT22;7791;47.246;9.648;2023-08-01T04:36:59;18.00;99.90
15386;DHT22;7791;47.246;9.648;2023-08-01T04:39:47;18.10;99.90
15386;DHT22;7791;47.246;9.648;2023-08-01T04:42:46;18.10;99.90
15386;DHT22;7791;47.246;9.648;2023-08-01T04:45:19;18.10;99.90
15386;DHT22;7791;47.246;9.648;2023-08-01T04:48:10;18.00;99.90
15386;DHT22;7791;47.246;9.648;2023-08-01T04:50:54;18.00;99.90
15386;DHT22;7791;47.246;9.648;2023-08-01T04:54:05;18.00;99.90
15386;DHT22;7791;47.246;9.648;2023-08-01T04:56:28;17.90;99.90
15386;DHT22;7791;47.246;9.648;2023-08-01T04:59:19;17.90;99.90
15386;DHT22;7791;47.246;9.648;2023-08-01T05:02:05;18.00;99.90
15386;DHT22;7791;47.246;9.648;2023-08-01T05:04:41;17.90;99.90
15386;DHT22;7791;47.246;9.648;2023-08-01T05:07:32;17.80;99.90
15386;DHT22;7791;47.246;9.648;2023-08-01T05:10:09;17.80;99.90
15386;DHT22;7791;47.246;9.648;2023-08-01T05:12:59;17.90;99.90
15386;DHT22;7791;47.246;9.648;2023-08-01T05:15:43;17.70;99.90
15386;DHT22;7791;47.246;9.648;2023-08-01T05:18:19;17.50;99.90
15386;DHT22;7791;47.246;9.648;2023-08-01T05:21:06;17.30;99.90
15386;DHT22;7791;47.246;9.648;2023-08-01T05:23:43;17.20;99.90
15386;DHT22;7791;47.246;9.648;2023-08-01T05:29:18;17.50;99.90
15386;DHT22;7791;47.246;9.648;2023-08-01T05:32:03;17.70;99.90
15386;DHT22;7791;47.246;9.648;2023-08-01T05:34:38;17.80;99.90
15386;DHT22;7791;47.246;9.648;2023-08-01T05:37:17;17.80;99.90
15386;DHT22;7791;47.246;9.648;2023-08-01T05:40:02;17.80;99.90
15386;DHT22;7791;47.246;9.648;2023-08-01T05:42:47;17.90;99.90
15386;DHT22;7791;47.246;9.648;2023-08-01T05:45:34;17.90;99.90
15386;DHT22;7791;47.246;9.648;2023-08-01T05:48:19;17.90;99.90
15386;DHT22;7791;47.246;9.648;2023-08-01T05:50:45;17.90;99.90
15386;DHT22;7791;47.246;9.648;2023-08-01T05:53:11;18.00;99.90
15386;DHT22;7791;47.246;9.648;2023-08-01T05:55:44;18.10;99.90
15386;DHT22;7791;47.246;9.648;2023-08-01T05:58:23;18.10;99.90
15386;DHT22;7791;47.246;9.648;2023-08-01T06:00:50;18.00;99.90
15386;DHT22;7791;47.246;9.648;2023-08-01T06:03:16;17.90;99.90
15386;DHT22;7791;47.246;9.648;2023-08-01T06:05:55;17.80;99.90
15386;DHT22;7791;47.246;9.648;2023-08-01T06:08:33;17.80;99.90
15386;DHT22;7791;47.246;9.648;2023-08-01T06:11:11;17.90;99.90
15386;DHT22;7791;47.246;9.648;2023-08-01T06:16:54;18.00;99.90
15386;DHT22;7791;47.246;9.648;2023-08-01T06:19:23;18.10;99.90
15386;DHT22;7791;47.246;9.648;2023-08-01T06:22:07;18.20;99.90
15386;DHT22;7791;47.246;9.648;2023-08-01T06:27:35;17.90;99.90
15386;DHT22;7791;47.246;9.648;2023-08-01T06:30:02;18.00;99.90
15386;DHT22;7791;47.246;9.648;2023-08-01T06:32:46;18.20;99.90
15386;DHT22;7791;47.246;9.648;2023-08-01T06:35:28;18.30;99.90
15386;DHT22;7791;47.246;9.648;2023-08-01T06:38:07;18.40;99.90
15386;DHT22;7791;47.246;9.648;2023-08-01T06:40:45;18.50;99.90
15386;DHT22;7791;47.246;9.648;2023-08-01T06:43:26;18.50;99.90
15386;DHT22;7791;47.246;9.648;2023-08-01T06:49:15;18.60;99.90
15386;DHT22;7791;47.246;9.648;2023-08-01T06:52:04;18.60;99.90
15386;DHT22;7791;47.246;9.648;2023-08-01T06:54:42;18.60;99.90
15386;DHT22;7791;47.246;9.648;2023-08-01T06:57:08;18.50;99.90
15386;DHT22;7791;47.246;9.648;2023-08-01T06:59:34;18.50;99.90
15386;DHT22;7791;47.246;9.648;2023-08-01T07:02:16;18.50;99.90
15386;DHT22;7791;47.246;9.648;2023-08-01T07:05:01;18.50;99.90
15386;DHT22;7791;47.246;9.648;2023-08-01T07:07:41;18.50;99.90
15386;DHT22;7791;47.246;9.648;2023-08-01T07:10:24;18.60;99.90
15386;DHT22;7791;47.246;9.648;2023-08-01T07:12:56;18.80;99.90
15386;DHT22;7791;47.246;9.648;2023-08-01T07:15:27;19.00;99.90
15386;DHT22;7791;47.246;9.648;2023-08-01T07:18:03;19.00;99.90
15386;DHT22;7791;47.246;9.648;2023-08-01T07:20:30;19.10;99.90
15386;DHT22;7791;47.246;9.648;2023-08-01T07:23:30;19.00;99.90
15386;DHT22;7791;47.246;9.648;2023-08-01T07:26:15;19.20;99.90
15386;DHT22;7791;47.246;9.648;2023-08-01T07:29:18;19.30;99.90
15386;DHT22;7791;47.246;9.648;2023-08-01T07:32:09;19.40;99.90
15386;DHT22;7791;47.246;9.648;2023-08-01T07:35:00;19.50;99.90
15386;DHT22;7791;47.246;9.648;2023-08-01T07:37:38;19.40;99.90
15386;DHT22;7791;47.246;9.648;2023-08-01T07:40:15;19.20;99.90
15386;DHT22;7791;47.246;9.648;2023-08-01T07:42:58;19.10;99.90
15386;DHT22;7791;47.246;9.648;2023-08-01T07:45:41;19.00;99.90
15386;DHT22;7791;47.246;9.648;2023-08-01T07:48:20;19.20;99.90
15386;DHT22;7791;47.246;9.648;2023-08-01T07:50:55;19.40;99.90
15386;DHT22;7791;47.246;9.648;2023-08-01T07:53:38;19.70;99.90
15386;DHT22;7791;47.246;9.648;2023-08-01T07:56:14;19.90;99.90
15386;DHT22;7791;47.246;9.648;2023-08-01T07:58:51;20.10;99.90
15386;DHT22;7791;47.246;9.648;2023-08-01T08:01:23;20.00;99.90
15386;DHT22;7791;47.246;9.648;2023-08-01T08:04:01;20.40;99.90
15386;DHT22;7791;47.246;9.648;2023-08-01T08:06:27;20.80;99.90
15386;DHT22;7791;47.246;9.648;2023-08-01T08:08:54;21.20;99.90
15386;DHT22;7791;47.246;9.648;2023-08-01T08:11:29;21.30;99.90
15386;DHT22;7791;47.246;9.648;2023-08-01T08:14:17;21.60;99.90
15386;DHT22;7791;47.246;9.648;2023-08-01T08:16:44;21.70;99.90
15386;DHT22;7791;47.246;9.648;2023-08-01T08:19:26;21.70;99.90
15386;DHT22;7791;47.246;9.648;2023-08-01T08:22:03;21.60;99.90
15386;DHT22;7791;47.246;9.648;2023-08-01T08:24:46;21.10;99.90
15386;DHT22;7791;47.246;9.648;2023-08-01T08:27:26;21.10;99.90
15386;DHT22;7791;47.246;9.648;2023-08-01T08:32:57;20.60;99.90
15386;DHT22;7791;47.246;9.648;2023-08-01T08:35:38;20.50;99.90
15386;DHT22;7791;47.246;9.648;2023-08-01T08:38:13;20.30;99.90
15386;DHT22;7791;47.246;9.648;2023-08-01T08:41:09;20.10;99.90
15386;DHT22;7791;47.246;9.648;2023-08-01T08:43:44;20.00;99.90
15386;DHT22;7791;47.246;9.648;2023-08-01T08:49:40;19.80;99.90
15386;DHT22;7791;47.246;9.648;2023-08-01T08:52:20;19.80;99.90
15386;DHT22;7791;47.246;9.648;2023-08-01T08:55:14;19.90;99.90
15386;DHT22;7791;47.246;9.648;2023-08-01T09:00:32;20.20;99.90
15386;DHT22;7791;47.246;9.648;2023-08-01T09:02:58;20.20;99.90
15386;DHT22;7791;47.246;9.648;2023-08-01T09:05:32;20.00;99.90
15386;DHT22;7791;47.246;9.648;2023-08-01T09:11:15;19.70;99.90
15386;DHT22;7791;47.246;9.648;2023-08-01T09:16:43;19.60;99.90
15386;DHT22;7791;47.246;9.648;2023-08-01T09:19:26;19.50;99.90
15386;DHT22;7791;47.246;9.648;2023-08-01T09:21:59;19.60;99.90
15386;DHT22;7791;47.246;9.648;2023-08-01T09:24:38;19.80;99.90
15386;DHT22;7791;47.246;9.648;2023-08-01T09:27:32;19.90;99.90
15386;DHT22;7791;47.246;9.648;2023-08-01T09:30:47;20.10;99.90
15386;DHT22;7791;47.246;9.648;2023-08-01T09:35:28;20.20;99.90
15386;DHT22;7791;47.246;9.648;2023-08-01T09:36:31;20.30;99.90
15386;DHT22;7791;47.246;9.648;2023-08-01T09:39:27;20.20;99.90
15386;DHT22;7791;47.246;9.648;2023-08-01T09:43:01;20.10;99.90
15386;DHT22;7791;47.246;9.648;2023-08-01T09:49:07;19.60;99.90
15386;DHT22;7791;47.246;9.648;2023-08-01T09:51:51;19.70;99.90
15386;DHT22;7791;47.246;9.648;2023-08-01T09:57:28;20.10;99.90
15386;DHT22;7791;47.246;9.648;2023-08-01T10:00:08;20.70;99.90
15386;DHT22;7791;47.246;9.648;2023-08-01T10:02:47;21.00;99.90
15386;DHT22;7791;47.246;9.648;2023-08-01T10:05:43;21.60;99.90
15386;DHT22;7791;47.246;9.648;2023-08-01T10:08:34;22.40;99.90
15386;DHT22;7791;47.246;9.648;2023-08-01T10:11:33;22.80;99.90
15386;DHT22;7791;47.246;9.648;2023-08-01T10:14:07;22.40;99.90
15386;DHT22;7791;47.246;9.648;2023-08-01T10:16:45;21.90;99.90
15386;DHT22;7791;47.246;9.648;2023-08-01T10:19:37;21.60;99.90
15386;DHT22;7791;47.246;9.648;2023-08-01T10:22:14;21.70;99.90
15386;DHT22;7791;47.246;9.648;2023-08-01T10:24:51;21.90;99.90
15386;DHT22;7791;47.246;9.648;2023-08-01T10:27:19;22.00;99.90
15386;DHT22;7791;47.246;9.648;2023-08-01T10:30:03;21.90;99.90
15386;DHT22;7791;47.246;9.648;2023-08-01T10:38:54;21.30;99.90
15386;DHT22;7791;47.246;9.648;2023-08-01T10:41:41;21.70;99.90
15386;DHT22;7791;47.246;9.648;2023-08-01T10:44:14;21.80;99.90
15386;DHT22;7791;47.246;9.648;2023-08-01T10:49:51;22.40;99.90
15386;DHT22;7791;47.246;9.648;2023-08-01T10:52:30;22.90;99.90
15386;DHT22;7791;47.246;9.648;2023-08-01T10:55:12;22.70;99.90
15386;DHT22;7791;47.246;9.648;2023-08-01T10:57:52;22.60;99.90
15386;DHT22;7791;47.246;9.648;2023-08-01T11:00:36;22.40;99.90
15386;DHT22;7791;47.246;9.648;2023-08-01T11:06:07;22.30;99.90
15386;DHT22;7791;47.246;9.648;2023-08-01T11:08:44;22.70;99.90
15386;DHT22;7791;47.246;9.648;2023-08-01T11:14:10;23.70;99.90
15386;DHT22;7791;47.246;9.648;2023-08-01T11:16:53;24.00;99.90
15386;DHT22;7791;47.246;9.648;2023-08-01T11:19:47;23.70;99.90
15386;DHT22;7791;47.246;9.648;2023-08-01T11:22:48;24.00;99.90
15386;DHT22;7791;47.246;9.648;2023-08-01T11:25:18;23.50;99.90
15386;DHT22;7791;47.246;9.648;2023-08-01T11:28:05;23.30;99.90
15386;DHT22;7791;47.246;9.648;2023-08-01T11:30:48;23.10;99.90
15386;DHT22;7791;47.246;9.648;2023-08-01T11:33:30;22.60;99.90
15386;DHT22;7791;47.246;9.648;2023-08-01T11:36:06;22.10;99.90
15386;DHT22;7791;47.246;9.648;2023-08-01T11:38:47;22.00;99.90
15386;DHT22;7791;47.246;9.648;2023-08-01T11:41:27;22.20;99.90
15386;DHT22;7791;47.246;9.648;2023-08-01T11:46:50;22.70;99.90
15386;DHT22;7791;47.246;9.648;2023-08-01T11:49:32;22.70;99.90
15386;DHT22;7791;47.246;9.648;2023-08-01T11:55:17;22.80;99.90
15386;DHT22;7791;47.246;9.648;2023-08-01T11:58:01;23.00;99.90
15386;DHT22;7791;47.246;9.648;2023-08-01T12:00:45;23.20;99.90
15386;DHT22;7791;47.246;9.648;2023-08-01T12:03:41;22.90;99.90
15386;DHT22;7791;47.246;9.648;2023-08-01T12:06:22;22.70;99.90
15386;DHT22;7791;47.246;9.648;2023-08-01T12:11:47;22.30;99.90
15386;DHT22;7791;47.246;9.648;2023-08-01T12:14:25;21.90;99.90
15386;DHT22;7791;47.246;9.648;2023-08-01T12:17:14;21.50;99.90
15386;DHT22;7791;47.246;9.648;2023-08-01T12:19:47;21.40;99.90
15386;DHT22;7791;47.246;9.648;2023-08-01T12:25:14;22.30;99.90
15386;DHT22;7791;47.246;9.648;2023-08-01T12:27:47;22.10;99.90
15386;DHT22;7791;47.246;9.648;2023-08-01T12:30:23;22.00;99.90
15386;DHT22;7791;47.246;9.648;2023-08-01T12:32:55;22.20;99.90
15386;DHT22;7791;47.246;9.648;2023-08-01T12:35:32;22.30;99.90
15386;DHT22;7791;47.246;9.648;2023-08-01T12:38:23;22.80;99.90
15386;DHT22;7791;47.246;9.648;2023-08-01T12:41:07;23.30;99.90
15386;DHT22;7791;47.246;9.648;2023-08-01T12:43:52;23.50;99.90
15386;DHT22;7791;47.246;9.648;2023-08-01T12:46:51;23.40;99.90
15386;DHT22;7791;47.246;9.648;2023-08-01T12:49:25;23.30;99.90
15386;DHT22;7791;47.246;9.648;2023-08-01T12:51:50;22.70;99.90
15386;DHT22;7791;47.246;9.648;2023-08-01T12:54:38;22.60;99.90
15386;DHT22;7791;47.246;9.648;2023-08-01T12:57:11;22.40;99.90
15386;DHT22;7791;47.246;9.648;2023-08-01T12:59:47;22.50;99.90
15386;DHT22;7791;47.246;9.648;2023-08-01T13:02:32;22.40;99.90
15386;DHT22;7791;47.246;9.648;2023-08-01T13:05:13;22.40;99.90
15386;DHT22;7791;47.246;9.648;2023-08-01T13:08:08;22.80;99.90
15386;DHT22;7791;47.246;9.648;2023-08-01T13:10:53;23.10;99.90
15386;DHT22;7791;47.246;9.648;2023-08-01T13:13:27;23.20;99.90
15386;DHT22;7791;47.246;9.648;2023-08-01T13:16:01;22.60;99.90
15386;DHT22;7791;47.246;9.648;2023-08-01T13:18:42;22.40;99.90
15386;DHT22;7791;47.246;9.648;2023-08-01T13:21:55;22.60;99.90
15386;DHT22;7791;47.246;9.648;2023-08-01T13:27:33;22.30;99.90
15386;DHT22;7791;47.246;9.648;2023-08-01T13:30:10;22.00;99.90
15386;DHT22;7791;47.246;9.648;2023-08-01T13:32:51;22.00;99.90
15386;DHT22;7791;47.246;9.648;2023-08-01T13:35:30;22.30;99.90
15386;DHT22;7791;47.246;9.648;2023-08-01T13:38:06;22.80;99.90
15386;DHT22;7791;47.246;9.648;2023-08-01T13:40:46;22.60;99.90
15386;DHT22;7791;47.246;9.648;2023-08-01T13:43:22;22.20;99.90
15386;DHT22;7791;47.246;9.648;2023-08-01T13:45:55;21.80;99.90
15386;DHT22;7791;47.246;9.648;2023-08-01T13:51:02;21.60;99.90
15386;DHT22;7791;47.246;9.648;2023-08-01T13:53:58;21.80;99.90
15386;DHT22;7791;47.246;9.648;2023-08-01T13:56:24;22.30;99.90
15386;DHT22;7791;47.246;9.648;2023-08-01T13:58:50;22.70;99.90
15386;DHT22;7791;47.246;9.648;2023-08-01T14:01:41;23.20;99.90
15386;DHT22;7791;47.246;9.648;2023-08-01T14:04:24;23.80;99.90
15386;DHT22;7791;47.246;9.648;2023-08-01T14:10:02;24.40;99.90
15386;DHT22;7791;47.246;9.648;2023-08-01T14:12:44;24.90;99.90
15386;DHT22;7791;47.246;9.648;2023-08-01T14:15:19;24.70;99.90
15386;DHT22;7791;47.246;9.648;2023-08-01T14:18:11;25.10;99.90
15386;DHT22;7791;47.246;9.648;2023-08-01T14:20:53;25.10;99.90
15386;DHT22;7791;47.246;9.648;2023-08-01T14:24:03;24.80;99.90
15386;DHT22;7791;47.246;9.648;2023-08-01T14:26:37;24.20;99.90
15386;DHT22;7791;47.246;9.648;2023-08-01T14:29:02;24.10;99.90
15386;DHT22;7791;47.246;9.648;2023-08-01T14:31:38;23.90;99.90
15386;DHT22;7791;47.246;9.648;2023-08-01T14:34:07;23.80;99.90
15386;DHT22;7791;47.246;9.648;2023-08-01T14:36:35;23.90;99.90
15386;DHT22;7791;47.246;9.648;2023-08-01T14:39:00;24.10;99.90
15386;DHT22;7791;47.246;9.648;2023-08-01T14:41:26;24.10;99.90
15386;DHT22;7791;47.246;9.648;2023-08-01T14:43:53;24.10;99.90
15386;DHT22;7791;47.246;9.648;2023-08-01T14:46:19;24.00;99.90
15386;DHT22;7791;47.246;9.648;2023-08-01T14:49:10;24.20;99.90
15386;DHT22;7791;47.246;9.648;2023-08-01T14:54:55;24.00;99.90
15386;DHT22;7791;47.246;9.648;2023-08-01T15:00:37;23.70;99.90
15386;DHT22;7791;47.246;9.648;2023-08-01T15:03:05;23.50;99.90
15386;DHT22;7791;47.246;9.648;2023-08-01T15:05:33;23.30;99.90
15386;DHT22;7791;47.246;9.648;2023-08-01T15:08:22;23.20;99.90
15386;DHT22;7791;47.246;9.648;2023-08-01T15:10:51;23.20;99.90
15386;DHT22;7791;47.246;9.648;2023-08-01T15:13:18;23.10;99.90
15386;DHT22;7791;47.246;9.648;2023-08-01T15:15:46;23.10;99.90
15386;DHT22;7791;47.246;9.648;2023-08-01T15:18:11;23.10;99.90
15386;DHT22;7791;47.246;9.648;2023-08-01T15:20:38;23.00;99.90
15386;DHT22;7791;47.246;9.648;2023-08-01T15:23:04;22.90;99.90
15386;DHT22;7791;47.246;9.648;2023-08-01T15:25:29;22.80;99.90
15386;DHT22;7791;47.246;9.648;2023-08-01T15:27:55;22.70;99.90
15386;DHT22;7791;47.246;9.648;2023-08-01T15:30:21;22.60;99.90
15386;DHT22;7791;47.246;9.648;2023-08-01T15:32:48;22.60;99.90
15386;DHT22;7791;47.246;9.648;2023-08-01T15:35:14;22.30;99.90
15386;DHT22;7791;47.246;9.648;2023-08-01T15:37:39;22.00;99.90
15386;DHT22;7791;47.246;9.648;2023-08-01T15:40:06;22.00;99.90
15386;DHT22;7791;47.246;9.648;2023-08-01T15:42:32;22.00;99.90
15386;DHT22;7791;47.246;9.648;2023-08-01T15:44:59;21.90;99.90
15386;DHT22;7791;47.246;9.648;2023-08-01T15:47:25;21.90;99.90
15386;DHT22;7791;47.246;9.648;2023-08-01T15:49:52;21.40;99.90
15386;DHT22;7791;47.246;9.648;2023-08-01T15:52:18;21.10;99.90
15386;DHT22;7791;47.246;9.648;2023-08-01T15:54:44;20.80;99.90
15386;DHT22;7791;47.246;9.648;2023-08-01T15:57:09;20.60;99.90
15386;DHT22;7791;47.246;9.648;2023-08-01T15:59:35;20.40;99.90
15386;DHT22;7791;47.246;9.648;2023-08-01T16:02:01;20.00;99.90
15386;DHT22;7791;47.246;9.648;2023-08-01T16:04:27;19.50;99.90
15386;DHT22;7791;47.246;9.648;2023-08-01T16:06:54;18.70;99.90
15386;DHT22;7791;47.246;9.648;2023-08-01T16:09:19;18.10;99.90
15386;DHT22;7791;47.246;9.648;2023-08-01T16:11:45;17.80;99.90
15386;DHT22;7791;47.246;9.648;2023-08-01T16:14:11;17.80;99.90
15386;DHT22;7791;47.246;9.648;2023-08-01T16:16:36;17.70;99.90
15386;DHT22;7791;47.246;9.648;2023-08-01T16:19:02;17.60;99.90
15386;DHT22;7791;47.246;9.648;2023-08-01T16:21:28;17.50;99.90
15386;DHT22;7791;47.246;9.648;2023-08-01T16:23:55;17.40;99.90
15386;DHT22;7791;47.246;9.648;2023-08-01T16:26:21;17.20;99.90
15386;DHT22;7791;47.246;9.648;2023-08-01T16:28:46;17.30;99.90
15386;DHT22;7791;47.246;9.648;2023-08-01T16:31:15;17.30;99.90
15386;DHT22;7791;47.246;9.648;2023-08-01T16:33:43;17.30;99.90
15386;DHT22;7791;47.246;9.648;2023-08-01T16:36:09;17.20;99.90
15386;DHT22;7791;47.246;9.648;2023-08-01T16:38:34;17.10;99.90
15386;DHT22;7791;47.246;9.648;2023-08-01T16:41:04;17.10;99.90
15386;DHT22;7791;47.246;9.648;2023-08-01T16:43:32;17.00;99.90
15386;DHT22;7791;47.246;9.648;2023-08-01T16:45:57;17.10;99.90
15386;DHT22;7791;47.246;9.648;2023-08-01T16:48:25;17.30;99.90
15386;DHT22;7791;47.246;9.648;2023-08-01T16:50:51;17.30;99.90
15386;DHT22;7791;47.246;9.648;2023-08-01T16:53:18;17.30;99.90
15386;DHT22;7791;47.246;9.648;2023-08-01T16:55:43;17.10;99.90
15386;DHT22;7791;47.246;9.648;2023-08-01T16:58:11;17.10;99.90
15386;DHT22;7791;47.246;9.648;2023-08-01T17:00:37;17.30;99.90
15386;DHT22;7791;47.246;9.648;2023-08-01T17:03:03;17.40;99.90
15386;DHT22;7791;47.246;9.648;2023-08-01T17:05:29;17.50;99.90
15386;DHT22;7791;47.246;9.648;2023-08-01T17:07:54;17.60;99.90
15386;DHT22;7791;47.246;9.648;2023-08-01T17:10:20;17.60;99.90
15386;DHT22;7791;47.246;9.648;2023-08-01T17:12:46;17.70;99.90
15386;DHT22;7791;47.246;9.648;2023-08-01T17:15:13;17.50;99.90
15386;DHT22;7791;47.246;9.648;2023-08-01T17:17:39;17.50;99.90
15386;DHT22;7791;47.246;9.648;2023-08-01T17:20:06;17.60;99.90
15386;DHT22;7791;47.246;9.648;2023-08-01T17:22:32;17.60;99.90
15386;DHT22;7791;47.246;9.648;2023-08-01T17:24:59;17.60;99.90
15386;DHT22;7791;47.246;9.648;2023-08-01T17:27:25;17.60;99.90
15386;DHT22;7791;47.246;9.648;2023-08-01T17:29:50;17.80;99.90
15386;DHT22;7791;47.246;9.648;2023-08-01T17:32:17;17.80;99.90
15386;DHT22;7791;47.246;9.648;2023-08-01T17:34:43;17.90;99.90
15386;DHT22;7791;47.246;9.648;2023-08-01T17:37:10;17.90;99.90
15386;DHT22;7791;47.246;9.648;2023-08-01T17:39:41;18.00;99.90
15386;DHT22;7791;47.246;9.648;2023-08-01T17:42:09;17.90;99.90
15386;DHT22;7791;47.246;9.648;2023-08-01T17:44:58;17.90;99.90
15386;DHT22;7791;47.246;9.648;2023-08-01T17:47:48;17.80;99.90
15386;DHT22;7791;47.246;9.648;2023-08-01T17:53:49;17.70;99.90
15386;DHT22;7791;47.246;9.648;2023-08-01T18:02:52;17.60;99.90
15386;DHT22;7791;47.246;9.648;2023-08-01T18:08:25;17.80;99.90
15386;DHT22;7791;47.246;9.648;2023-08-01T18:11:50;17.80;99.90
15386;DHT22;7791;47.246;9.648;2023-08-01T18:14:01;17.80;99.90
15386;DHT22;7791;47.246;9.648;2023-08-01T18:16:27;17.60;99.90
15386;DHT22;7791;47.246;9.648;2023-08-01T18:33:47;17.70;99.90
15386;DHT22;7791;47.246;9.648;2023-08-01T18:36:17;17.80;99.90
15386;DHT22;7791;47.246;9.648;2023-08-01T18:38:44;17.60;99.90
15386;DHT22;7791;47.246;9.648;2023-08-01T18:41:10;17.60;99.90
15386;DHT22;7791;47.246;9.648;2023-08-01T18:43:39;17.70;99.90
15386;DHT22;7791;47.246;9.648;2023-08-01T18:46:05;17.70;99.90
15386;DHT22;7791;47.246;9.648;2023-08-01T18:48:34;17.70;99.90
15386;DHT22;7791;47.246;9.648;2023-08-01T18:51:09;17.70;99.90
15386;DHT22;7791;47.246;9.648;2023-08-01T18:53:35;17.70;99.90
15386;DHT22;7791;47.246;9.648;2023-08-01T18:56:09;17.60;99.90